sensor_id;sensor_type;location;lat;lon;timestamp;pressure;altitude;pressure_sealevel;temperature;humidity
44934;BME280;30667;43.614;1.442;2022-10-31T00:00:42;100179.13;;;18.90;100.00
44934;BME280;30667;43.614;1.442;2022-10-31T00:03:08;100189.13;;;18.94;100.00
44934;BME280;30667;43.614;1.442;2022-10-31T00:05:33;100193.13;;;18.97;100.00
44934;BME280;30667;43.614;1.442;2022-10-31T00:07:58;100194.34;;;19.08;100.00
44934;BME280;30667;43.614;1.442;2022-10-31T00:10:24;100186.75;;;19.14;100.00
44934;BME280;30667;43.614;1.442;2022-10-31T00:12:49;100184.28;;;19.21;100.00
44934;BME280;30667;43.614;1.442;2022-10-31T00:15:14;100180.41;;;19.22;100.00
44934;BME280;30667;43.614;1.442;2022-10-31T00:17:40;100176.06;;;19.21;100.00
44934;BME280;30667;43.614;1.442;2022-10-31T00:20:06;100178.84;;;19.12;100.00
44934;BME280;30667;43.614;1.442;2022-10-31T00:22:31;100184.53;;;19.07;100.00
44934;BME280;30667;43.614;1.442;2022-10-31T00:24:56;100178.19;;;19.15;100.00
44934;BME280;30667;43.614;1.442;2022-10-31T00:27:22;100173.94;;;19.27;100.00
44934;BME280;30667;43.614;1.442;2022-10-31T00:29:47;100175.59;;;19.40;100.00
44934;BME280;30667;43.614;1.442;2022-10-31T00:32:13;100166.13;;;19.37;100.00
44934;BME280;30667;43.614;1.442;2022-10-31T00:34:38;100174.41;;;19.29;100.00
44934;BME280;30667;43.614;1.442;2022-10-31T00:37:03;100198.91;;;19.34;100.00
44934;BME280;30667;43.614;1.442;2022-10-31T00:39:29;100194.56;;;19.33;100.00
44934;BME280;30667;43.614;1.442;2022-10-31T00:41:54;100178.28;;;19.28;100.00
44934;BME280;30667;43.614;1.442;2022-10-31T00:44:19;100153.88;;;19.35;100.00
44934;BME280;30667;43.614;1.442;2022-10-31T00:46:45;100138.47;;;19.42;100.00
44934;BME280;30667;43.614;1.442;2022-10-31T00:49:10;100122.44;;;19.53;100.00
44934;BME280;30667;43.614;1.442;2022-10-31T00:51:37;100094.69;;;19.46;100.00
44934;BME280;30667;43.614;1.442;2022-10-31T00:54:03;100079.72;;;19.44;100.00
44934;BME280;30667;43.614;1.442;2022-10-31T00:56:28;100070.75;;;19.55;100.00
44934;BME280;30667;43.614;1.442;2022-10-31T00:58:53;100058.63;;;19.56;100.00
44934;BME280;30667;43.614;1.442;2022-10-31T01:01:19;100062.13;;;19.45;100.00
44934;BME280;30667;43.614;1.442;2022-10-31T01:03:44;100063.19;;;19.52;100.00
44934;BME280;30667;43.614;1.442;2022-10-31T01:06:11;100040.66;;;19.47;100.00
44934;BME280;30667;43.614;1.442;2022-10-31T01:08:37;100041.16;;;19.40;100.00
44934;BME280;30667;43.614;1.442;2022-10-31T01:13:34;100069.56;;;19.44;100.00
44934;BME280;30667;43.614;1.442;2022-10-31T01:16:00;100093.78;;;19.42;100.00
44934;BME280;30667;43.614;1.442;2022-10-31T01:18:26;100090.16;;;19.08;100.00
44934;BME280;30667;43.614;1.442;2022-10-31T01:21:07;100086.53;;;18.95;100.00
44934;BME280;30667;43.614;1.442;2022-10-31T01:23:33;100090.56;;;18.98;100.00
44934;BME280;30667;43.614;1.442;2022-10-31T01:26:11;100106.22;;;19.18;100.00
44934;BME280;30667;43.614;1.442;2022-10-31T01:28:39;100104.59;;;18.96;100.00
44934;BME280;30667;43.614;1.442;2022-10-31T01:31:08;100099.84;;;19.05;100.00
44934;BME280;30667;43.614;1.442;2022-10-31T01:33:35;100108.34;;;18.83;100.00
44934;BME280;30667;43.614;1.442;2022-10-31T01:36:01;100110.06;;;18.96;100.00
44934;BME280;30667;43.614;1.442;2022-10-31T01:38:27;100115.13;;;18.85;100.00
44934;BME280;30667;43.614;1.442;2022-10-31T01:40:52;100112.97;;;18.61;100.00
44934;BME280;30667;43.614;1.442;2022-10-31T01:43:19;100108.13;;;18.58;100.00
44934;BME280;30667;43.614;1.442;2022-10-31T01:45:51;100110.09;;;18.49;100.00
44934;BME280;30667;43.614;1.442;2022-10-31T01:48:22;100112.84;;;18.49;100.00
44934;BME280;30667;43.614;1.442;2022-10-31T01:50:50;100103.13;;;18.60;100.00
44934;BME280;30667;43.614;1.442;2022-10-31T01:53:18;100107.53;;;18.52;100.00
44934;BME280;30667;43.614;1.442;2022-10-31T01:55:44;100105.13;;;18.51;100.00
44934;BME280;30667;43.614;1.442;2022-10-31T01:58:18;100104.94;;;18.56;100.00
44934;BME280;30667;43.614;1.442;2022-10-31T02:00:46;100100.50;;;18.43;100.00
44934;BME280;30667;43.614;1.442;2022-10-31T02:03:14;100095.22;;;18.29;100.00
44934;BME280;30667;43.614;1.442;2022-10-31T02:05:41;100103.63;;;18.24;100.00
44934;BME280;30667;43.614;1.442;2022-10-31T02:08:18;100096.66;;;18.26;100.00
44934;BME280;30667;43.614;1.442;2022-10-31T02:10:45;100096.34;;;18.28;100.00
44934;BME280;30667;43.614;1.442;2022-10-31T02:13:11;100083.78;;;18.27;100.00
44934;BME280;30667;43.614;1.442;2022-10-31T02:15:39;100080.69;;;18.37;100.00
44934;BME280;30667;43.614;1.442;2022-10-31T02:18:06;100079.56;;;18.29;100.00
44934;BME280;30667;43.614;1.442;2022-10-31T02:21:00;100077.97;;;18.28;100.00
44934;BME280;30667;43.614;1.442;2022-10-31T02:36:52;100046.66;;;18.00;100.00
44934;BME280;30667;43.614;1.442;2022-10-31T02:39:25;100044.09;;;18.03;100.00
44934;BME280;30667;43.614;1.442;2022-10-31T02:44:21;100036.63;;;18.12;100.00
44934;BME280;30667;43.614;1.442;2022-10-31T02:46:53;100040.53;;;18.03;100.00
44934;BME280;30667;43.614;1.442;2022-10-31T02:49:34;100039.91;;;17.97;100.00
44934;BME280;30667;43.614;1.442;2022-10-31T02:52:01;100032.69;;;17.92;100.00
44934;BME280;30667;43.614;1.442;2022-10-31T02:54:28;100036.84;;;17.90;100.00
44934;BME280;30667;43.614;1.442;2022-10-31T02:57:04;100051.03;;;17.92;100.00
44934;BME280;30667;43.614;1.442;2022-10-31T02:59:34;100044.09;;;17.94;100.00
44934;BME280;30667;43.614;1.442;2022-10-31T03:04:50;100033.41;;;18.10;100.00
44934;BME280;30667;43.614;1.442;2022-10-31T03:10:14;100021.53;;;17.97;100.00
44934;BME280;30667;43.614;1.442;2022-10-31T03:15:30;100011.81;;;18.18;100.00
44934;BME280;30667;43.614;1.442;2022-10-31T03:18:10;100012.22;;;17.99;100.00
44934;BME280;30667;43.614;1.442;2022-10-31T03:20:40;100002.97;;;18.12;100.00
44934;BME280;30667;43.614;1.442;2022-10-31T03:23:12;100002.38;;;17.97;100.00
44934;BME280;30667;43.614;1.442;2022-10-31T03:25:39;100000.09;;;18.08;100.00
44934;BME280;30667;43.614;1.442;2022-10-31T03:28:06;100011.06;;;18.00;100.00
44934;BME280;30667;43.614;1.442;2022-10-31T03:30:35;100019.47;;;17.94;100.00
44934;BME280;30667;43.614;1.442;2022-10-31T03:33:05;100015.59;;;17.95;100.00
44934;BME280;30667;43.614;1.442;2022-10-31T03:35:35;100008.69;;;17.89;100.00
44934;BME280;30667;43.614;1.442;2022-10-31T03:38:02;100010.63;;;17.89;100.00
44934;BME280;30667;43.614;1.442;2022-10-31T03:40:30;100009.63;;;17.85;100.00
44934;BME280;30667;43.614;1.442;2022-10-31T03:43:00;100015.44;;;17.83;100.00
44934;BME280;30667;43.614;1.442;2022-10-31T03:45:30;100012.22;;;17.99;100.00
44934;BME280;30667;43.614;1.442;2022-10-31T03:47:57;100012.06;;;17.95;100.00
44934;BME280;30667;43.614;1.442;2022-10-31T03:50:25;100012.72;;;17.92;100.00
44934;BME280;30667;43.614;1.442;2022-10-31T03:53:11;100010.94;;;17.87;100.00
44934;BME280;30667;43.614;1.442;2022-10-31T03:56:05;100010.63;;;17.80;100.00
44934;BME280;30667;43.614;1.442;2022-10-31T03:59:05;100010.94;;;17.78;100.00
44934;BME280;30667;43.614;1.442;2022-10-31T04:01:32;100012.25;;;17.72;100.00
44934;BME280;30667;43.614;1.442;2022-10-31T04:04:00;100010.75;;;17.84;100.00
44934;BME280;30667;43.614;1.442;2022-10-31T04:06:27;100007.72;;;17.76;100.00
44934;BME280;30667;43.614;1.442;2022-10-31T04:08:56;100000.66;;;17.75;100.00
44934;BME280;30667;43.614;1.442;2022-10-31T04:11:28;99993.72;;;17.69;100.00
44934;BME280;30667;43.614;1.442;2022-10-31T04:13:56;100002.59;;;17.66;100.00
44934;BME280;30667;43.614;1.442;2022-10-31T04:16:24;100014.22;;;17.63;100.00
44934;BME280;30667;43.614;1.442;2022-10-31T04:18:50;100006.34;;;17.61;100.00
44934;BME280;30667;43.614;1.442;2022-10-31T04:21:15;100002.28;;;17.68;100.00
44934;BME280;30667;43.614;1.442;2022-10-31T04:23:42;100002.91;;;17.73;100.00
44934;BME280;30667;43.614;1.442;2022-10-31T04:26:08;100000.34;;;17.68;100.00
44934;BME280;30667;43.614;1.442;2022-10-31T04:28:35;99996.19;;;17.62;100.00
44934;BME280;30667;43.614;1.442;2022-10-31T04:31:00;99989.75;;;17.58;100.00
44934;BME280;30667;43.614;1.442;2022-10-31T04:33:26;99995.06;;;17.54;100.00
44934;BME280;30667;43.614;1.442;2022-10-31T04:35:51;99996.69;;;17.55;100.00
44934;BME280;30667;43.614;1.442;2022-10-31T04:38:17;99997.66;;;17.51;100.00
44934;BME280;30667;43.614;1.442;2022-10-31T04:40:42;100001.38;;;17.46;100.00
44934;BME280;30667;43.614;1.442;2022-10-31T04:43:07;99991.84;;;17.43;100.00
44934;BME280;30667;43.614;1.442;2022-10-31T04:45:33;99993.78;;;17.60;100.00
44934;BME280;30667;43.614;1.442;2022-10-31T04:47:58;99996.03;;;17.50;100.00
44934;BME280;30667;43.614;1.442;2022-10-31T04:50:23;99988.63;;;17.50;100.00
44934;BME280;30667;43.614;1.442;2022-10-31T04:52:49;99998.94;;;17.45;100.00
44934;BME280;30667;43.614;1.442;2022-10-31T04:55:15;99992.03;;;17.38;100.00
44934;BME280;30667;43.614;1.442;2022-10-31T04:57:50;99997.03;;;17.36;100.00
44934;BME280;30667;43.614;1.442;2022-10-31T05:00:20;99994.13;;;17.41;100.00
44934;BME280;30667;43.614;1.442;2022-10-31T05:02:50;100006.19;;;17.40;100.00
44934;BME280;30667;43.614;1.442;2022-10-31T05:05:18;99989.44;;;17.42;100.00
44934;BME280;30667;43.614;1.442;2022-10-31T05:07:45;99984.47;;;17.35;100.00
44934;BME280;30667;43.614;1.442;2022-10-31T05:10:13;99987.38;;;17.30;100.00
44934;BME280;30667;43.614;1.442;2022-10-31T05:12:48;99988.69;;;17.24;100.00
44934;BME280;30667;43.614;1.442;2022-10-31T05:15:14;99987.38;;;17.04;100.00
44934;BME280;30667;43.614;1.442;2022-10-31T05:17:40;99988.19;;;16.87;100.00
44934;BME280;30667;43.614;1.442;2022-10-31T05:20:06;99982.69;;;16.78;100.00
44934;BME280;30667;43.614;1.442;2022-10-31T05:22:31;99980.28;;;16.68;100.00
44934;BME280;30667;43.614;1.442;2022-10-31T05:24:56;99975.59;;;16.60;100.00
44934;BME280;30667;43.614;1.442;2022-10-31T05:27:22;99972.38;;;16.49;100.00
44934;BME280;30667;43.614;1.442;2022-10-31T05:29:47;99970.75;;;16.39;100.00
44934;BME280;30667;43.614;1.442;2022-10-31T05:32:12;99965.44;;;16.34;100.00
44934;BME280;30667;43.614;1.442;2022-10-31T05:34:38;99967.50;;;16.28;100.00
44934;BME280;30667;43.614;1.442;2022-10-31T05:37:03;99980.00;;;16.21;100.00
44934;BME280;30667;43.614;1.442;2022-10-31T05:39:29;99968.25;;;16.11;100.00
44934;BME280;30667;43.614;1.442;2022-10-31T05:41:54;99971.78;;;16.12;100.00
44934;BME280;30667;43.614;1.442;2022-10-31T05:44:19;99977.25;;;16.12;100.00
44934;BME280;30667;43.614;1.442;2022-10-31T05:46:46;99983.50;;;16.12;100.00
44934;BME280;30667;43.614;1.442;2022-10-31T05:49:11;99981.72;;;16.08;100.00
44934;BME280;30667;43.614;1.442;2022-10-31T05:51:37;99988.00;;;16.08;100.00
44934;BME280;30667;43.614;1.442;2022-10-31T05:54:02;99984.59;;;16.03;100.00
44934;BME280;30667;43.614;1.442;2022-10-31T05:56:28;99976.88;;;15.96;100.00
44934;BME280;30667;43.614;1.442;2022-10-31T05:58:54;99975.25;;;15.95;100.00
44934;BME280;30667;43.614;1.442;2022-10-31T06:01:19;99984.38;;;15.90;100.00
44934;BME280;30667;43.614;1.442;2022-10-31T06:03:44;99979.59;;;15.96;100.00
44934;BME280;30667;43.614;1.442;2022-10-31T06:06:10;99981.38;;;16.01;100.00
44934;BME280;30667;43.614;1.442;2022-10-31T06:08:35;99977.50;;;16.02;100.00
44934;BME280;30667;43.614;1.442;2022-10-31T06:11:01;99980.22;;;15.93;100.00
44934;BME280;30667;43.614;1.442;2022-10-31T06:13:26;99975.22;;;15.86;100.00
44934;BME280;30667;43.614;1.442;2022-10-31T06:15:52;99979.19;;;15.80;100.00
44934;BME280;30667;43.614;1.442;2022-10-31T06:18:17;99974.72;;;15.84;100.00
44934;BME280;30667;43.614;1.442;2022-10-31T06:20:42;99971.81;;;15.80;100.00
44934;BME280;30667;43.614;1.442;2022-10-31T06:23:08;99970.38;;;15.83;100.00
44934;BME280;30667;43.614;1.442;2022-10-31T06:25:33;99964.09;;;15.83;100.00
44934;BME280;30667;43.614;1.442;2022-10-31T06:27:59;99961.91;;;15.85;100.00
44934;BME280;30667;43.614;1.442;2022-10-31T06:30:25;99972.19;;;15.88;100.00
44934;BME280;30667;43.614;1.442;2022-10-31T06:32:50;99970.94;;;15.94;100.00
44934;BME280;30667;43.614;1.442;2022-10-31T06:35:16;99973.31;;;15.95;100.00
44934;BME280;30667;43.614;1.442;2022-10-31T06:37:41;99975.88;;;15.92;100.00
44934;BME280;30667;43.614;1.442;2022-10-31T06:40:07;99972.97;;;15.88;100.00
44934;BME280;30667;43.614;1.442;2022-10-31T06:42:32;99974.41;;;15.86;100.00
44934;BME280;30667;43.614;1.442;2022-10-31T06:44:58;99969.94;;;15.90;100.00
44934;BME280;30667;43.614;1.442;2022-10-31T06:47:23;99969.31;;;15.93;100.00
44934;BME280;30667;43.614;1.442;2022-10-31T06:49:48;99964.53;;;16.07;100.00
44934;BME280;30667;43.614;1.442;2022-10-31T06:52:14;99963.81;;;16.24;100.00
44934;BME280;30667;43.614;1.442;2022-10-31T06:54:40;99969.28;;;16.33;100.00
44934;BME280;30667;43.614;1.442;2022-10-31T06:57:05;99976.53;;;16.38;100.00
44934;BME280;30667;43.614;1.442;2022-10-31T06:59:30;99986.13;;;16.35;100.00
44934;BME280;30667;43.614;1.442;2022-10-31T07:01:57;99987.28;;;16.43;100.00
44934;BME280;30667;43.614;1.442;2022-10-31T07:04:23;99985.53;;;16.47;100.00
44934;BME280;30667;43.614;1.442;2022-10-31T07:06:51;99984.47;;;16.83;100.00
44934;BME280;30667;43.614;1.442;2022-10-31T07:09:16;99979.16;;;16.78;100.00
44934;BME280;30667;43.614;1.442;2022-10-31T07:11:42;99986.38;;;16.65;100.00
44934;BME280;30667;43.614;1.442;2022-10-31T07:14:07;99986.69;;;16.55;100.00
44934;BME280;30667;43.614;1.442;2022-10-31T07:16:32;99979.94;;;16.61;100.00
44934;BME280;30667;43.614;1.442;2022-10-31T07:18:58;99990.56;;;16.71;100.00
44934;BME280;30667;43.614;1.442;2022-10-31T07:21:23;99990.09;;;16.69;100.00
44934;BME280;30667;43.614;1.442;2022-10-31T07:23:48;99991.06;;;16.82;100.00
44934;BME280;30667;43.614;1.442;2022-10-31T07:26:14;99984.13;;;16.84;100.00
44934;BME280;30667;43.614;1.442;2022-10-31T07:28:39;99987.22;;;17.00;100.00
44934;BME280;30667;43.614;1.442;2022-10-31T07:31:05;99988.50;;;16.94;100.00
44934;BME280;30667;43.614;1.442;2022-10-31T07:33:31;99989.16;;;17.00;100.00
44934;BME280;30667;43.614;1.442;2022-10-31T07:35:56;99985.47;;;16.87;100.00
44934;BME280;30667;43.614;1.442;2022-10-31T07:38:21;99968.28;;;16.86;100.00
44934;BME280;30667;43.614;1.442;2022-10-31T07:40:50;99969.69;;;16.84;100.00
44934;BME280;30667;43.614;1.442;2022-10-31T07:43:17;99968.69;;;16.80;100.00
44934;BME280;30667;43.614;1.442;2022-10-31T07:45:43;99981.41;;;16.76;100.00
44934;BME280;30667;43.614;1.442;2022-10-31T07:48:09;99978.34;;;16.68;100.00
44934;BME280;30667;43.614;1.442;2022-10-31T07:50:34;99987.03;;;16.70;100.00
44934;BME280;30667;43.614;1.442;2022-10-31T07:53:10;99990.56;;;16.80;100.00
44934;BME280;30667;43.614;1.442;2022-10-31T07:55:36;99989.47;;;16.89;100.00
44934;BME280;30667;43.614;1.442;2022-10-31T07:58:07;99992.53;;;17.23;100.00
44934;BME280;30667;43.614;1.442;2022-10-31T08:00:34;99999.94;;;17.14;100.00
44934;BME280;30667;43.614;1.442;2022-10-31T08:03:11;99989.78;;;17.32;100.00
44934;BME280;30667;43.614;1.442;2022-10-31T08:05:37;99989.16;;;17.00;100.00
44934;BME280;30667;43.614;1.442;2022-10-31T08:08:04;99970.66;;;16.88;100.00
44934;BME280;30667;43.614;1.442;2022-10-31T08:10:30;99963.59;;;16.96;100.00
44934;BME280;30667;43.614;1.442;2022-10-31T08:13:06;99960.84;;;17.13;100.00
44934;BME280;30667;43.614;1.442;2022-10-31T08:15:33;99963.22;;;17.50;100.00
44934;BME280;30667;43.614;1.442;2022-10-31T08:18:02;99960.38;;;17.85;100.00
44934;BME280;30667;43.614;1.442;2022-10-31T08:20:27;99965.91;;;18.14;100.00
44934;BME280;30667;43.614;1.442;2022-10-31T08:22:56;99964.53;;;18.29;100.00
44934;BME280;30667;43.614;1.442;2022-10-31T08:25:23;99964.69;;;18.33;100.00
44934;BME280;30667;43.614;1.442;2022-10-31T08:27:53;99942.41;;;18.43;100.00
44934;BME280;30667;43.614;1.442;2022-10-31T08:30:23;99941.41;;;18.48;100.00
44934;BME280;30667;43.614;1.442;2022-10-31T08:33:09;99946.47;;;18.58;100.00
44934;BME280;30667;43.614;1.442;2022-10-31T08:35:35;99944.81;;;18.66;100.00
44934;BME280;30667;43.614;1.442;2022-10-31T08:38:01;99941.06;;;18.70;100.00
44934;BME280;30667;43.614;1.442;2022-10-31T08:40:28;99937.88;;;18.68;100.00
44934;BME280;30667;43.614;1.442;2022-10-31T08:43:01;99933.53;;;18.67;100.00
44934;BME280;30667;43.614;1.442;2022-10-31T08:45:27;99936.72;;;18.69;100.00
44934;BME280;30667;43.614;1.442;2022-10-31T08:47:57;99915.53;;;18.79;100.00
44934;BME280;30667;43.614;1.442;2022-10-31T08:50:23;99925.97;;;18.85;100.00
44934;BME280;30667;43.614;1.442;2022-10-31T08:52:49;99920.50;;;18.85;100.00
44934;BME280;30667;43.614;1.442;2022-10-31T08:55:14;99924.19;;;18.90;100.00
44934;BME280;30667;43.614;1.442;2022-10-31T08:57:39;99911.72;;;18.92;100.00
44934;BME280;30667;43.614;1.442;2022-10-31T09:00:05;99911.19;;;18.99;100.00
44934;BME280;30667;43.614;1.442;2022-10-31T09:02:31;99909.72;;;19.01;100.00
44934;BME280;30667;43.614;1.442;2022-10-31T09:04:56;99920.34;;;19.03;100.00
44934;BME280;30667;43.614;1.442;2022-10-31T09:07:22;99906.63;;;19.03;100.00
44934;BME280;30667;43.614;1.442;2022-10-31T09:09:47;99896.81;;;19.02;100.00
44934;BME280;30667;43.614;1.442;2022-10-31T09:12:13;99894.88;;;19.02;100.00
44934;BME280;30667;43.614;1.442;2022-10-31T09:14:38;99892.13;;;19.02;100.00
44934;BME280;30667;43.614;1.442;2022-10-31T09:17:03;99896.28;;;19.09;100.00
44934;BME280;30667;43.614;1.442;2022-10-31T09:19:29;99893.19;;;19.10;100.00
44934;BME280;30667;43.614;1.442;2022-10-31T09:21:54;99890.91;;;19.12;100.00
44934;BME280;30667;43.614;1.442;2022-10-31T09:24:20;99883.34;;;19.09;100.00
44934;BME280;30667;43.614;1.442;2022-10-31T09:26:45;99886.09;;;19.09;100.00
44934;BME280;30667;43.614;1.442;2022-10-31T09:29:11;99889.63;;;19.10;100.00
44934;BME280;30667;43.614;1.442;2022-10-31T09:31:36;99894.78;;;19.11;100.00
44934;BME280;30667;43.614;1.442;2022-10-31T09:34:02;99879.94;;;19.12;100.00
44934;BME280;30667;43.614;1.442;2022-10-31T09:36:27;99884.28;;;19.13;100.00
44934;BME280;30667;43.614;1.442;2022-10-31T09:38:52;99889.78;;;19.13;100.00
44934;BME280;30667;43.614;1.442;2022-10-31T09:44:06;99889.09;;;19.16;100.00
44934;BME280;30667;43.614;1.442;2022-10-31T09:49:28;99891.16;;;19.19;100.00
44934;BME280;30667;43.614;1.442;2022-10-31T09:52:02;99887.25;;;19.20;100.00
44934;BME280;30667;43.614;1.442;2022-10-31T09:57:03;99894.25;;;19.18;100.00
44934;BME280;30667;43.614;1.442;2022-10-31T09:59:33;99892.06;;;19.23;100.00
44934;BME280;30667;43.614;1.442;2022-10-31T10:02:17;99883.44;;;19.34;100.00
44934;BME280;30667;43.614;1.442;2022-10-31T10:04:58;99883.75;;;19.32;100.00
44934;BME280;30667;43.614;1.442;2022-10-31T10:07:58;99888.91;;;19.34;100.00
44934;BME280;30667;43.614;1.442;2022-10-31T10:16:05;99891.09;;;19.40;100.00
44934;BME280;30667;43.614;1.442;2022-10-31T10:18:53;99878.97;;;19.41;100.00
44934;BME280;30667;43.614;1.442;2022-10-31T10:27:29;99888.69;;;19.51;100.00
44934;BME280;30667;43.614;1.442;2022-10-31T10:30:11;99883.09;;;19.48;100.00
44934;BME280;30667;43.614;1.442;2022-10-31T10:33:24;99879.56;;;19.47;100.00
44934;BME280;30667;43.614;1.442;2022-10-31T10:35:54;99873.72;;;19.49;100.00
44934;BME280;30667;43.614;1.442;2022-10-31T10:38:29;99875.34;;;19.50;100.00
44934;BME280;30667;43.614;1.442;2022-10-31T10:40:58;99867.56;;;19.52;100.00
44934;BME280;30667;43.614;1.442;2022-10-31T10:43:33;99875.09;;;19.55;100.00
44934;BME280;30667;43.614;1.442;2022-10-31T10:57:05;99836.91;;;19.62;100.00
44934;BME280;30667;43.614;1.442;2022-10-31T10:59:35;99845.47;;;19.60;100.00
44934;BME280;30667;43.614;1.442;2022-10-31T11:02:00;99835.66;;;19.59;100.00
44934;BME280;30667;43.614;1.442;2022-10-31T11:04:32;99829.34;;;19.59;100.00
44934;BME280;30667;43.614;1.442;2022-10-31T11:07:07;99838.84;;;19.62;100.00
44934;BME280;30667;43.614;1.442;2022-10-31T11:09:34;99825.13;;;19.62;100.00
44934;BME280;30667;43.614;1.442;2022-10-31T11:12:07;99823.66;;;19.64;100.00
44934;BME280;30667;43.614;1.442;2022-10-31T11:14:37;99823.31;;;19.66;100.00
44934;BME280;30667;43.614;1.442;2022-10-31T11:17:14;99827.41;;;19.72;100.00
44934;BME280;30667;43.614;1.442;2022-10-31T11:19:42;99825.00;;;19.70;100.00
44934;BME280;30667;43.614;1.442;2022-10-31T11:22:15;99826.97;;;19.70;100.00
44934;BME280;30667;43.614;1.442;2022-10-31T11:24:41;99808.88;;;19.69;100.00
44934;BME280;30667;43.614;1.442;2022-10-31T11:27:19;99809.69;;;19.69;100.00
44934;BME280;30667;43.614;1.442;2022-10-31T11:29:45;99808.19;;;19.72;100.00
44934;BME280;30667;43.614;1.442;2022-10-31T11:32:29;99811.28;;;19.70;100.00
44934;BME280;30667;43.614;1.442;2022-10-31T11:35:09;99815.28;;;19.73;100.00
44934;BME280;30667;43.614;1.442;2022-10-31T11:37:45;99808.88;;;19.69;100.00
44934;BME280;30667;43.614;1.442;2022-10-31T11:40:30;99802.69;;;19.72;100.00
44934;BME280;30667;43.614;1.442;2022-10-31T11:42:57;99807.50;;;19.75;100.00
44934;BME280;30667;43.614;1.442;2022-10-31T11:45:33;99796.22;;;19.76;100.00
44934;BME280;30667;43.614;1.442;2022-10-31T11:48:00;99788.28;;;19.75;100.00
44934;BME280;30667;43.614;1.442;2022-10-31T11:50:40;99771.03;;;19.74;100.00
44934;BME280;30667;43.614;1.442;2022-10-31T11:53:33;99773.91;;;19.78;100.00
44934;BME280;30667;43.614;1.442;2022-10-31T11:58:30;99764.09;;;19.77;100.00
44934;BME280;30667;43.614;1.442;2022-10-31T12:00:57;99755.84;;;19.77;100.00
44934;BME280;30667;43.614;1.442;2022-10-31T12:06:07;99745.31;;;19.79;100.00
44934;BME280;30667;43.614;1.442;2022-10-31T12:08:37;99751.59;;;19.80;100.00
44934;BME280;30667;43.614;1.442;2022-10-31T12:14:19;99728.94;;;19.83;100.00
44934;BME280;30667;43.614;1.442;2022-10-31T12:24:39;99728.69;;;19.88;100.00
44934;BME280;30667;43.614;1.442;2022-10-31T12:30:21;99723.69;;;19.90;100.00
44934;BME280;30667;43.614;1.442;2022-10-31T12:41:04;99711.19;;;19.92;100.00
44934;BME280;30667;43.614;1.442;2022-10-31T12:46:52;99691.53;;;19.90;100.00
44934;BME280;30667;43.614;1.442;2022-10-31T12:49:42;99680.97;;;19.92;100.00
44934;BME280;30667;43.614;1.442;2022-10-31T12:57:45;99675.75;;;19.87;100.00
44934;BME280;30667;43.614;1.442;2022-10-31T13:00:15;99677.34;;;19.88;100.00
44934;BME280;30667;43.614;1.442;2022-10-31T13:05:36;99672.31;;;19.90;100.00
44934;BME280;30667;43.614;1.442;2022-10-31T13:08:18;99660.63;;;19.93;100.00
44934;BME280;30667;43.614;1.442;2022-10-31T13:10:48;99668.88;;;19.93;100.00
44934;BME280;30667;43.614;1.442;2022-10-31T13:13:23;99662.59;;;19.93;100.00
44934;BME280;30667;43.614;1.442;2022-10-31T13:16:02;99655.47;;;19.92;100.00
44934;BME280;30667;43.614;1.442;2022-10-31T13:18:32;99661.41;;;19.94;100.00
44934;BME280;30667;43.614;1.442;2022-10-31T13:21:00;99657.53;;;19.95;100.00
44934;BME280;30667;43.614;1.442;2022-10-31T13:23:32;99660.72;;;19.97;100.00
44934;BME280;30667;43.614;1.442;2022-10-31T13:26:03;99657.19;;;19.96;100.00
44934;BME280;30667;43.614;1.442;2022-10-31T13:28:38;99656.50;;;20.00;100.00
44934;BME280;30667;43.614;1.442;2022-10-31T13:31:08;99654.88;;;19.99;100.00
44934;BME280;30667;43.614;1.442;2022-10-31T13:33:46;99652.47;;;19.97;100.00
44934;BME280;30667;43.614;1.442;2022-10-31T13:44:03;99651.69;;;19.96;100.00
44934;BME280;30667;43.614;1.442;2022-10-31T13:46:39;99652.91;;;19.99;100.00
44934;BME280;30667;43.614;1.442;2022-10-31T13:54:38;99648.69;;;20.02;100.00
44934;BME280;30667;43.614;1.442;2022-10-31T14:00:22;99644.34;;;20.01;100.00
44934;BME280;30667;43.614;1.442;2022-10-31T14:02:51;99645.94;;;20.02;100.00
44934;BME280;30667;43.614;1.442;2022-10-31T14:05:35;99645.94;;;20.02;100.00
44934;BME280;30667;43.614;1.442;2022-10-31T14:08:03;99643.97;;;20.02;100.00
44934;BME280;30667;43.614;1.442;2022-10-31T14:10:32;99643.97;;;20.02;100.00
44934;BME280;30667;43.614;1.442;2022-10-31T14:15:32;99629.47;;;20.02;100.00
44934;BME280;30667;43.614;1.442;2022-10-31T14:18:06;99624.41;;;20.04;100.00
44934;BME280;30667;43.614;1.442;2022-10-31T14:20:42;99635.88;;;20.06;100.00
44934;BME280;30667;43.614;1.442;2022-10-31T14:31:43;99632.31;;;20.05;100.00
44934;BME280;30667;43.614;1.442;2022-10-31T14:53:02;99633.28;;;20.13;100.00
44934;BME280;30667;43.614;1.442;2022-10-31T14:55:29;99628.50;;;20.10;100.00
44934;BME280;30667;43.614;1.442;2022-10-31T14:58:01;99624.53;;;20.07;100.00
44934;BME280;30667;43.614;1.442;2022-10-31T15:00:31;99634.00;;;20.10;100.00
44934;BME280;30667;43.614;1.442;2022-10-31T15:05:41;99629.31;;;20.10;100.00
44934;BME280;30667;43.614;1.442;2022-10-31T15:08:35;99633.28;;;20.13;100.00
44934;BME280;30667;43.614;1.442;2022-10-31T15:11:24;99627.38;;;20.11;100.00
44934;BME280;30667;43.614;1.442;2022-10-31T15:14:17;99641.09;;;20.11;100.00
44934;BME280;30667;43.614;1.442;2022-10-31T15:16:39;99647.81;;;20.13;100.00
44934;BME280;30667;43.614;1.442;2022-10-31T15:19:12;99642.72;;;20.12;100.00
44934;BME280;30667;43.614;1.442;2022-10-31T15:21:44;99652.53;;;20.13;100.00
44934;BME280;30667;43.614;1.442;2022-10-31T15:24:13;99652.09;;;20.11;100.00